createdAt,value
2022-12-18T00:00:15.743Z,21.63
2022-12-18T00:02:44.208Z,21.53
2022-12-18T00:05:13.243Z,23.03
2022-12-18T00:07:41.665Z,21.80
2022-12-18T00:10:10.989Z,20.60
2022-12-18T00:12:45.108Z,21.10
2022-12-18T00:15:13.407Z,22.87
2022-12-18T00:17:41.812Z,21.27
2022-12-18T00:20:11.748Z,20.30
2022-12-18T00:22:40.035Z,21.13
2022-12-18T00:25:09.349Z,22.53
2022-12-18T00:27:37.612Z,23.13
2022-12-18T00:30:09.079Z,21.70
2022-12-18T00:32:38.067Z,22.10
2022-12-18T00:35:07.584Z,22.90
2022-12-18T00:37:36.372Z,21.83
2022-12-18T00:40:05.546Z,22.13
2022-12-18T00:42:51.333Z,21.30
2022-12-18T00:45:21.019Z,20.10
2022-12-18T00:47:49.300Z,21.30
2022-12-18T00:50:17.849Z,21.00
2022-12-18T00:52:46.159Z,20.40
2022-12-18T00:55:15.114Z,21.17
2022-12-18T00:57:43.760Z,22.67
2022-12-18T01:00:15.885Z,21.60
2022-12-18T01:02:45.751Z,21.40
2022-12-18T01:05:15.906Z,20.27
2022-12-18T01:07:44.329Z,21.30
2022-12-18T01:10:14.898Z,20.73
2022-12-18T01:12:44.023Z,20.40
2022-12-18T01:15:14.614Z,20.77
2022-12-18T01:17:42.984Z,20.90
2022-12-18T01:20:14.870Z,22.37
2022-12-18T01:22:43.169Z,20.07
2022-12-18T01:25:11.546Z,21.13
2022-12-18T01:27:39.800Z,20.67
2022-12-18T01:30:09.834Z,21.23
2022-12-18T01:32:38.141Z,19.17
2022-12-18T01:35:08.061Z,20.90
2022-12-18T01:37:37.724Z,20.50
2022-12-18T01:40:08.066Z,19.27
2022-12-18T01:42:36.380Z,20.63
2022-12-18T01:45:10.856Z,18.77
2022-12-18T01:47:43.661Z,18.80
2022-12-18T01:50:18.555Z,18.00
2022-12-18T01:52:52.476Z,19.67
2022-12-18T01:55:25.095Z,18.60
2022-12-18T01:57:56.756Z,19.00
2022-12-18T02:00:26.230Z,19.70
2022-12-18T02:02:55.361Z,19.03
2022-12-18T02:05:36.121Z,20.13
2022-12-18T02:08:12.616Z,19.53
2022-12-18T02:10:49.804Z,19.47
2022-12-18T02:13:24.215Z,18.93
2022-12-18T02:16:02.464Z,18.93
2022-12-18T02:18:35.801Z,18.43
2022-12-18T02:21:15.880Z,19.63
2022-12-18T02:23:53.266Z,19.53
2022-12-18T02:26:28.979Z,19.73
2022-12-18T02:29:02.950Z,18.57
2022-12-18T02:31:36.732Z,15.80
2022-12-18T02:34:08.944Z,19.60
2022-12-18T02:36:41.264Z,20.43
2022-12-18T02:39:13.248Z,19.00
2022-12-18T02:41:43.020Z,18.37
2022-12-18T02:44:14.592Z,19.50
2022-12-18T02:46:45.864Z,16.50
2022-12-18T02:49:33.086Z,17.83
2022-12-18T02:52:09.968Z,18.20
2022-12-18T02:54:54.560Z,17.50
2022-12-18T02:57:36.315Z,18.77
2022-12-18T03:00:09.697Z,18.63
2022-12-18T03:02:45.748Z,18.93
2022-12-18T03:05:19.687Z,18.30
2022-12-18T03:07:54.963Z,18.63
2022-12-18T03:10:30.580Z,19.23
2022-12-18T03:13:07.188Z,17.23
2022-12-18T03:15:40.400Z,19.80
2022-12-18T03:18:13.879Z,20.13
2022-12-18T03:20:45.876Z,19.37
2022-12-18T03:23:19.371Z,18.57
2022-12-18T03:25:48.368Z,20.23
2022-12-18T03:28:22.843Z,20.33
2022-12-18T03:30:57.321Z,19.83
2022-12-18T03:33:32.045Z,19.93
2022-12-18T03:36:00.276Z,18.57
2022-12-18T03:38:28.599Z,18.90
2022-12-18T03:41:03.827Z,19.33
2022-12-18T03:43:45.393Z,18.17
2022-12-18T03:46:20.653Z,16.83
2022-12-18T03:48:54.048Z,18.67
2022-12-18T03:51:29.923Z,17.67
2022-12-18T03:54:02.615Z,18.20
2022-12-18T03:56:34.628Z,17.67
2022-12-18T03:59:06.563Z,19.10
2022-12-18T04:01:40.890Z,18.33
2022-12-18T04:04:11.713Z,18.83
2022-12-18T04:06:41.007Z,20.23
2022-12-18T04:09:09.607Z,20.00
2022-12-18T04:11:37.971Z,19.37
2022-12-18T04:14:07.772Z,19.03
2022-12-18T04:16:36.800Z,21.30
2022-12-18T04:19:05.720Z,20.97
2022-12-18T04:21:34.198Z,20.13
2022-12-18T04:24:02.554Z,20.73
2022-12-18T04:26:30.779Z,22.20
2022-12-18T04:28:58.956Z,20.80
2022-12-18T04:31:28.951Z,22.43
2022-12-18T04:33:57.245Z,22.00
2022-12-18T04:36:25.474Z,20.17
2022-12-18T04:38:53.692Z,18.90
2022-12-18T04:41:21.912Z,19.20
2022-12-18T04:43:50.137Z,19.73
2022-12-18T04:46:18.541Z,20.80
2022-12-18T04:48:49.418Z,21.43
2022-12-18T04:51:20.850Z,21.47
2022-12-18T04:53:53.080Z,17.67
2022-12-18T04:56:21.486Z,18.00
2022-12-18T04:58:49.900Z,17.70
2022-12-18T05:01:20.339Z,19.23
2022-12-18T05:03:50.122Z,18.73
2022-12-18T05:06:18.379Z,18.50
2022-12-18T05:08:46.738Z,23.17
2022-12-18T05:11:17.730Z,20.70
2022-12-18T05:13:46.681Z,20.93
2022-12-18T05:16:16.299Z,19.20
2022-12-18T05:18:44.645Z,20.53
2022-12-18T05:21:14.340Z,19.50
2022-12-18T05:23:43.087Z,17.93
2022-12-18T05:26:18.178Z,18.20
2022-12-18T05:28:46.929Z,17.97
2022-12-18T05:31:15.668Z,19.70
2022-12-18T05:33:44.274Z,18.63
2022-12-18T05:36:14.131Z,18.27
2022-12-18T05:38:42.788Z,18.07
2022-12-18T05:41:12.033Z,17.47
2022-12-18T05:43:41.934Z,19.67
2022-12-18T05:46:13.965Z,20.73
2022-12-18T05:48:42.494Z,19.43
2022-12-18T05:51:15.434Z,18.73
2022-12-18T05:53:44.810Z,20.67
2022-12-18T05:56:15.760Z,19.60
2022-12-18T05:58:44.342Z,21.17
2022-12-18T06:01:15.792Z,18.97
2022-12-18T06:03:44.396Z,20.53
2022-12-18T06:06:19.867Z,19.60
2022-12-18T06:08:48.790Z,20.57
2022-12-18T06:11:21.460Z,20.50
2022-12-18T06:13:57.958Z,20.37
2022-12-18T06:16:27.474Z,19.10
2022-12-18T06:18:55.941Z,19.50
2022-12-18T06:21:25.564Z,20.57
2022-12-18T06:23:53.852Z,19.17
2022-12-18T06:26:27.596Z,19.90
2022-12-18T06:28:56.493Z,19.27
2022-12-18T06:31:24.949Z,19.63
2022-12-18T06:33:53.554Z,20.40
2022-12-18T06:36:22.337Z,20.37
2022-12-18T06:38:51.989Z,20.87
2022-12-18T06:41:22.921Z,19.70
2022-12-18T06:43:52.240Z,19.67
2022-12-18T06:46:22.823Z,18.20
2022-12-18T06:48:52.020Z,19.47
2022-12-18T06:51:22.607Z,21.63
2022-12-18T06:53:52.362Z,21.40
2022-12-18T06:56:20.768Z,21.37
2022-12-18T06:58:49.103Z,17.87
2022-12-18T07:01:17.440Z,16.60
2022-12-18T07:03:46.109Z,15.53
2022-12-18T07:06:19.829Z,15.30
2022-12-18T07:08:48.939Z,14.53
2022-12-18T07:11:19.540Z,16.47
2022-12-18T07:13:48.699Z,15.17
2022-12-18T07:16:24.824Z,15.93
2022-12-18T07:18:54.477Z,16.07
2022-12-18T07:21:23.756Z,13.87
2022-12-18T07:23:52.367Z,16.87
2022-12-18T07:26:23.409Z,15.73
2022-12-18T07:28:52.545Z,17.63
2022-12-18T07:31:23.631Z,15.93
2022-12-18T07:33:52.316Z,15.67
2022-12-18T07:36:28.483Z,15.07
2022-12-18T07:38:57.049Z,16.87
2022-12-18T07:41:26.686Z,15.73
2022-12-18T07:43:54.945Z,15.53
2022-12-18T07:46:23.474Z,14.93
2022-12-18T07:48:51.869Z,13.80
2022-12-18T07:51:20.991Z,12.90
2022-12-18T07:53:52.413Z,13.20
2022-12-18T07:56:29.998Z,14.43
2022-12-18T07:59:08.364Z,15.17
2022-12-18T08:01:36.801Z,15.07
2022-12-18T08:04:06.062Z,14.83
2022-12-18T08:06:34.479Z,15.07
2022-12-18T08:09:02.826Z,11.70
2022-12-18T08:11:31.311Z,12.83
2022-12-18T08:14:00.898Z,13.27
2022-12-18T08:16:29.357Z,13.63
2022-12-18T08:18:57.654Z,14.43
2022-12-18T08:21:28.810Z,13.83
2022-12-18T08:23:59.237Z,16.20
2022-12-18T08:26:30.388Z,15.13
2022-12-18T08:29:01.679Z,15.03
2022-12-18T08:31:32.024Z,14.63
2022-12-18T08:34:00.548Z,15.67
2022-12-18T08:36:29.042Z,14.57
2022-12-18T08:38:57.311Z,16.03
2022-12-18T08:41:25.819Z,15.90
2022-12-18T08:44:11.745Z,15.37
2022-12-18T08:46:44.262Z,15.10
2022-12-18T08:49:13.637Z,15.33
2022-12-18T08:51:42.435Z,14.10
2022-12-18T08:54:14.856Z,15.43
2022-12-18T08:56:43.205Z,15.03
2022-12-18T08:59:18.828Z,14.73
2022-12-18T09:01:49.651Z,13.47
2022-12-18T09:04:18.254Z,15.67
2022-12-18T09:06:46.529Z,14.33
2022-12-18T09:09:14.838Z,15.77
2022-12-18T09:11:43.254Z,16.30
2022-12-18T09:14:12.313Z,15.40
2022-12-18T09:16:40.674Z,16.47
2022-12-18T09:19:11.711Z,14.60
2022-12-18T09:21:44.806Z,16.00
2022-12-18T09:24:17.444Z,15.37
2022-12-18T09:26:47.101Z,14.77
2022-12-18T09:29:16.375Z,16.30
2022-12-18T09:31:47.160Z,16.93
2022-12-18T09:34:16.765Z,15.80
2022-12-18T09:36:45.250Z,16.07
2022-12-18T09:39:13.474Z,17.77
2022-12-18T09:41:54.587Z,17.63
2022-12-18T09:44:27.612Z,16.90
2022-12-18T09:47:13.177Z,15.97
2022-12-18T09:49:46.551Z,19.37
2022-12-18T09:52:21.958Z,16.57
2022-12-18T09:54:56.740Z,18.33
2022-12-18T09:57:26.752Z,16.13
2022-12-18T09:59:59.212Z,15.93
2022-12-18T10:02:29.027Z,16.27
2022-12-18T10:05:12.844Z,17.33
2022-12-18T10:07:59.625Z,16.00
2022-12-18T10:10:40.899Z,17.13
2022-12-18T10:13:20.593Z,18.57
2022-12-18T10:16:05.739Z,16.33
2022-12-18T10:19:16.950Z,17.63
2022-12-18T10:21:55.498Z,16.37
2022-12-18T10:24:33.455Z,17.20
2022-12-18T10:27:16.941Z,16.47
2022-12-18T10:29:47.376Z,16.60
2022-12-18T10:32:21.521Z,16.87
2022-12-18T10:34:55.352Z,16.37
2022-12-18T10:37:31.693Z,18.37
2022-12-18T10:40:21.930Z,16.57
2022-12-18T10:43:07.529Z,16.77
2022-12-18T10:45:36.064Z,16.33
2022-12-18T10:48:05.787Z,18.80
2022-12-18T10:51:09.720Z,15.97
2022-12-18T10:53:30.468Z,15.43
2022-12-18T10:56:05.205Z,16.53
2022-12-18T10:58:35.825Z,14.33
2022-12-18T11:01:12.570Z,14.20
2022-12-18T11:03:43.301Z,15.13
2022-12-18T11:06:14.676Z,16.13
2022-12-18T11:08:48.065Z,16.17
2022-12-18T11:11:24.058Z,15.80
2022-12-18T11:14:01.901Z,17.07
2022-12-18T11:16:32.694Z,14.87
2022-12-18T11:19:25.239Z,14.93
2022-12-18T11:21:53.818Z,14.53
2022-12-18T11:24:30.296Z,14.80
2022-12-18T11:27:01.367Z,13.97
2022-12-18T11:29:46.446Z,14.27
2022-12-18T11:32:36.491Z,13.83
2022-12-18T11:35:14.543Z,14.13
2022-12-18T11:37:49.677Z,13.43
2022-12-18T11:40:24.636Z,15.00
2022-12-18T11:43:00.440Z,20.13
2022-12-18T11:45:32.170Z,14.20
2022-12-18T11:48:07.379Z,15.93
2022-12-18T11:50:48.808Z,14.67
2022-12-18T11:53:17.154Z,14.23
2022-12-18T11:55:59.305Z,15.00
2022-12-18T11:58:45.287Z,12.33
2022-12-18T12:01:32.702Z,15.10
2022-12-18T12:04:39.988Z,15.63
2022-12-18T12:07:25.444Z,15.97
2022-12-18T12:10:04.029Z,15.63
2022-12-18T12:12:49.263Z,14.87
2022-12-18T12:15:32.829Z,16.00
2022-12-18T12:18:11.675Z,14.50
2022-12-18T12:20:52.366Z,16.43
2022-12-18T12:23:34.957Z,15.00
2022-12-18T12:26:08.662Z,15.67
2022-12-18T12:29:10.269Z,15.87
2022-12-18T12:32:04.213Z,15.27
2022-12-18T12:34:46.356Z,16.90
2022-12-18T12:37:27.966Z,15.13
2022-12-18T12:39:57.266Z,16.57
2022-12-18T12:42:50.999Z,15.90
2022-12-18T12:45:25.779Z,17.03
2022-12-18T12:47:55.615Z,16.53
2022-12-18T12:50:25.715Z,16.43
2022-12-18T12:52:56.837Z,17.63
2022-12-18T12:55:27.856Z,16.67
2022-12-18T12:58:08.063Z,15.63
2022-12-18T13:00:47.682Z,16.47
2022-12-18T13:03:32.568Z,15.87
2022-12-18T13:06:07.480Z,17.00
2022-12-18T13:08:56.057Z,17.13
2022-12-18T13:12:03.009Z,18.30
2022-12-18T13:14:34.976Z,20.20
2022-12-18T13:17:32.210Z,15.60
2022-12-18T13:20:14.512Z,15.70
2022-12-18T13:22:48.193Z,14.93
2022-12-18T13:25:40.509Z,15.70
2022-12-18T13:28:13.633Z,14.33
2022-12-18T13:31:01.545Z,13.57
2022-12-18T13:36:40.582Z,13.67
2022-12-18T13:39:35.320Z,13.97
2022-12-18T13:43:00.562Z,13.17
2022-12-18T13:45:48.202Z,12.20
2022-12-18T13:48:26.265Z,12.87
2022-12-18T13:51:01.539Z,12.77
2022-12-18T13:53:36.533Z,13.70
2022-12-18T13:56:06.253Z,15.47
2022-12-18T13:58:35.710Z,15.30
2022-12-18T14:01:05.675Z,16.13
2022-12-18T14:03:34.167Z,14.50
2022-12-18T14:06:08.291Z,14.80
2022-12-18T14:08:41.941Z,13.67
2022-12-18T14:11:23.257Z,15.83
2022-12-18T14:13:52.541Z,14.13
2022-12-18T14:16:20.920Z,15.57
2022-12-18T14:18:55.462Z,16.27
2022-12-18T14:21:30.480Z,16.40
2022-12-18T14:24:17.279Z,15.40
2022-12-18T14:26:50.318Z,14.87
2022-12-18T14:29:28.424Z,13.37
2022-12-18T14:32:17.467Z,21.20
2022-12-18T14:34:47.237Z,16.97
2022-12-18T14:37:19.304Z,15.27
2022-12-18T14:39:59.295Z,15.10
2022-12-18T14:42:29.213Z,17.13
2022-12-18T14:45:41.728Z,21.47
2022-12-18T14:48:22.851Z,19.87
2022-12-18T14:51:03.359Z,14.83
2022-12-18T14:53:40.502Z,14.60
2022-12-18T14:56:19.712Z,16.27
2022-12-18T14:58:50.792Z,17.33
2022-12-18T15:01:26.016Z,20.67
2022-12-18T15:03:55.849Z,18.87
2022-12-18T15:06:34.982Z,17.03
2022-12-18T15:09:08.498Z,15.20
2022-12-18T15:11:48.722Z,14.30
2022-12-18T15:14:41.949Z,15.47
2022-12-18T15:17:20.189Z,14.43
2022-12-18T15:19:51.015Z,13.73
2022-12-18T15:22:27.842Z,13.50
2022-12-18T15:24:59.315Z,13.87
2022-12-18T15:27:35.787Z,13.63
2022-12-18T15:30:23.778Z,12.50
2022-12-18T15:33:19.114Z,13.87
2022-12-18T15:35:47.438Z,12.47
2022-12-18T15:38:15.693Z,13.10
2022-12-18T15:40:45.321Z,13.67
2022-12-18T15:43:31.295Z,12.33
2022-12-18T15:46:00.227Z,13.40
2022-12-18T15:48:28.614Z,13.10
2022-12-18T15:50:59.491Z,12.10
2022-12-18T15:53:32.655Z,12.10
2022-12-18T15:56:19.917Z,14.33
2022-12-18T15:58:48.757Z,13.90
2022-12-18T16:01:30.183Z,15.63
2022-12-18T16:03:58.824Z,14.90
2022-12-18T16:06:30.496Z,14.20
2022-12-18T16:09:04.948Z,16.10
2022-12-18T16:11:41.173Z,14.43
2022-12-18T16:14:18.998Z,13.37
2022-12-18T16:16:47.999Z,14.43
2022-12-18T16:19:17.091Z,14.50
2022-12-18T16:21:45.986Z,13.07
2022-12-18T16:24:18.123Z,14.60
2022-12-18T16:26:47.894Z,13.00
2022-12-18T16:29:17.058Z,14.47
2022-12-18T16:31:45.511Z,13.40
2022-12-18T16:34:23.189Z,14.37
2022-12-18T16:36:54.333Z,14.30
2022-12-18T16:39:23.345Z,15.97
2022-12-18T16:41:54.725Z,15.53
2022-12-18T16:44:24.323Z,16.87
2022-12-18T16:46:52.613Z,17.90
2022-12-18T16:49:22.437Z,16.00
2022-12-18T16:51:50.788Z,14.30
2022-12-18T16:54:19.676Z,15.33
2022-12-18T16:56:49.890Z,16.10
2022-12-18T16:59:20.267Z,15.83
2022-12-18T17:01:48.952Z,14.80
2022-12-18T17:04:18.649Z,15.83
2022-12-18T17:06:51.733Z,14.23
2022-12-18T17:09:23.797Z,15.27
2022-12-18T17:11:52.151Z,15.00
2022-12-18T17:14:24.881Z,18.93
2022-12-18T17:17:19.611Z,18.90
2022-12-18T17:19:41.980Z,19.73
2022-12-18T17:22:10.292Z,19.03
2022-12-18T17:24:38.569Z,20.20
2022-12-18T17:27:08.573Z,19.67
2022-12-18T17:29:41.268Z,21.37
2022-12-18T17:32:12.409Z,21.80
2022-12-18T17:34:40.870Z,22.83
2022-12-18T17:37:09.433Z,24.60
2022-12-18T17:39:38.198Z,25.23
2022-12-18T17:42:06.813Z,23.00
2022-12-18T17:44:37.757Z,20.60
2022-12-18T17:47:06.653Z,21.57
2022-12-18T17:49:34.969Z,19.00
2022-12-18T17:52:03.241Z,17.47
2022-12-18T17:54:31.682Z,17.10
2022-12-18T17:57:00.008Z,15.63
2022-12-18T17:59:28.394Z,17.93
2022-12-18T18:01:58.243Z,21.37
2022-12-18T18:04:27.488Z,20.57
2022-12-18T18:06:55.726Z,19.10
2022-12-18T18:09:24.033Z,19.17
2022-12-18T18:12:09.760Z,18.87
2022-12-18T18:14:38.144Z,16.87
2022-12-18T18:17:08.504Z,18.07
2022-12-18T18:19:36.967Z,18.63
2022-12-18T18:22:07.247Z,18.43
2022-12-18T18:24:35.525Z,17.83
2022-12-18T18:27:03.775Z,17.47
2022-12-18T18:29:32.206Z,17.93
2022-12-18T18:32:00.767Z,19.60
2022-12-18T18:34:32.953Z,20.07
2022-12-18T18:37:01.360Z,23.57
2022-12-18T18:39:30.428Z,18.43
2022-12-18T18:41:59.362Z,19.97
2022-12-18T18:44:27.752Z,20.30
2022-12-18T18:46:57.623Z,18.20
2022-12-18T18:49:27.849Z,20.70
2022-12-18T18:52:00.279Z,19.60
2022-12-18T18:54:28.665Z,24.47
2022-12-18T18:57:19.972Z,39.50
2022-12-18T18:59:47.410Z,29.93
2022-12-18T19:02:17.416Z,31.13
2022-12-18T19:04:46.892Z,26.07
2022-12-18T19:07:20.336Z,22.30
2022-12-18T19:10:04.559Z,20.93
2022-12-18T19:12:52.470Z,20.47
2022-12-18T19:15:21.656Z,20.23
2022-12-18T19:17:50.032Z,20.73
2022-12-18T19:20:18.775Z,21.33
2022-12-18T19:22:55.380Z,19.50
2022-12-18T19:25:38.112Z,19.67
2022-12-18T19:28:13.487Z,19.83
2022-12-18T19:30:57.880Z,20.70
2022-12-18T19:33:44.595Z,19.53
2022-12-18T19:36:16.836Z,20.70
2022-12-18T19:38:47.429Z,20.10
2022-12-18T19:41:17.883Z,19.70
2022-12-18T19:43:47.445Z,18.97
2022-12-18T19:46:18.641Z,19.80
2022-12-18T19:48:47.413Z,18.43
2022-12-18T19:51:18.708Z,19.23
2022-12-18T19:53:50.548Z,18.77
2022-12-18T19:56:25.000Z,19.70
2022-12-18T19:58:54.290Z,19.53
2022-12-18T20:01:24.868Z,18.80
2022-12-18T20:03:54.493Z,17.93
2022-12-18T20:06:28.949Z,19.30
2022-12-18T20:09:01.862Z,20.23
2022-12-18T20:11:30.508Z,18.17
2022-12-18T20:14:02.269Z,19.47
2022-12-18T20:16:30.689Z,18.73
2022-12-18T20:19:00.050Z,18.93
2022-12-18T20:21:28.703Z,19.07
2022-12-18T20:24:00.013Z,18.30
2022-12-18T20:26:29.411Z,18.93
2022-12-18T20:28:58.000Z,18.17
2022-12-18T20:31:26.452Z,18.27
2022-12-18T20:33:59.650Z,18.47
2022-12-18T20:36:30.635Z,19.87
2022-12-18T20:39:01.586Z,17.77
2022-12-18T20:41:37.473Z,17.70
2022-12-18T20:44:21.991Z,18.50
2022-12-18T20:46:53.348Z,18.73
2022-12-18T20:49:21.706Z,20.27
2022-12-18T20:51:52.746Z,16.93
2022-12-18T20:54:23.155Z,20.00
2022-12-18T20:56:52.123Z,18.87
2022-12-18T20:59:20.530Z,18.43
2022-12-18T21:01:49.416Z,19.30
2022-12-18T21:04:19.162Z,19.13
2022-12-18T21:06:53.027Z,19.77
2022-12-18T21:09:24.159Z,20.40
2022-12-18T21:12:21.364Z,20.03
2022-12-18T21:14:49.634Z,17.70
2022-12-18T21:17:18.503Z,18.97
2022-12-18T21:19:46.788Z,17.73
2022-12-18T21:22:16.299Z,19.87
2022-12-18T21:24:46.154Z,20.63
2022-12-18T21:27:14.447Z,20.23
2022-12-18T21:29:47.061Z,20.13
2022-12-18T21:32:15.981Z,18.53
2022-12-18T21:34:48.032Z,19.83
2022-12-18T21:37:17.022Z,19.20
2022-12-18T21:39:48.585Z,19.00
2022-12-18T21:42:34.647Z,17.57
2022-12-18T21:45:02.949Z,19.33
2022-12-18T21:47:31.283Z,19.13
2022-12-18T21:49:59.592Z,18.63
2022-12-18T21:52:32.500Z,18.83
2022-12-18T21:55:09.113Z,19.27
2022-12-18T21:57:39.181Z,19.73
2022-12-18T22:00:18.538Z,19.73
2022-12-18T22:03:03.729Z,18.50
2022-12-18T22:05:36.742Z,18.93
2022-12-18T22:08:06.674Z,19.00
2022-12-18T22:10:36.877Z,19.27
2022-12-18T22:13:05.961Z,18.23
2022-12-18T22:15:34.670Z,19.53
2022-12-18T22:18:02.950Z,18.37
2022-12-18T22:20:31.196Z,29.15
2022-12-18T22:23:04.224Z,23.20
2022-12-18T22:25:39.233Z,22.00
2022-12-18T22:28:25.512Z,20.17
2022-12-18T22:30:59.113Z,20.60
2022-12-18T22:33:28.829Z,19.77
2022-12-18T22:35:57.327Z,18.53
2022-12-18T22:38:25.593Z,20.30
2022-12-18T22:40:56.286Z,19.67
2022-12-18T22:43:24.713Z,19.60
2022-12-18T22:45:52.909Z,19.40
2022-12-18T22:48:21.810Z,18.53
2022-12-18T22:50:50.049Z,19.20
2022-12-18T22:53:19.352Z,17.53
2022-12-18T22:55:47.750Z,19.33
2022-12-18T22:58:17.337Z,18.40
2022-12-18T23:00:45.614Z,19.50
2022-12-18T23:03:13.912Z,18.87
2022-12-18T23:05:42.187Z,19.53
2022-12-18T23:08:10.437Z,19.47
2022-12-18T23:10:39.484Z,20.70
2022-12-18T23:13:07.791Z,18.57
2022-12-18T23:15:43.268Z,19.13
2022-12-18T23:18:11.550Z,18.63
2022-12-18T23:20:40.021Z,19.47
2022-12-18T23:23:08.471Z,21.33
2022-12-18T23:25:36.812Z,20.20
2022-12-18T23:28:06.058Z,18.80
2022-12-18T23:30:36.317Z,20.00
2022-12-18T23:33:04.714Z,18.90
2022-12-18T23:35:33.149Z,19.80
2022-12-18T23:38:01.394Z,18.77
2022-12-18T23:40:30.551Z,18.80
2022-12-18T23:43:00.197Z,19.60
2022-12-18T23:45:28.670Z,19.03
2022-12-18T23:47:58.382Z,19.00
2022-12-18T23:50:29.580Z,18.70
2022-12-18T23:53:05.054Z,18.07
2022-12-18T23:55:39.620Z,20.07
2022-12-18T23:58:09.019Z,19.10
